createdAt,value
2023-12-20T00:00:49.585Z,140.43
2023-12-20T00:03:19.264Z,104.47
2023-12-20T00:05:48.637Z,89.37
2023-12-20T00:08:17.972Z,132.07
2023-12-20T00:10:48.417Z,168.48
2023-12-20T00:13:18.189Z,155.63
2023-12-20T00:15:50.748Z,101.35
2023-12-20T00:18:20.317Z,68.68
2023-12-20T00:20:53.383Z,194.98
2023-12-20T00:23:24.593Z,175.35
2023-12-20T00:25:55.649Z,108.63
2023-12-20T00:28:24.718Z,110.75
2023-12-20T00:30:54.072Z,124.70
2023-12-20T00:33:29.240Z,111.25
2023-12-20T00:35:59.713Z,55.10
2023-12-20T00:38:28.847Z,106.93
2023-12-20T00:40:59.895Z,105.20
2023-12-20T00:43:28.990Z,165.12
2023-12-20T00:45:58.390Z,85.12
2023-12-20T00:48:29.895Z,97.70
2023-12-20T00:50:59.735Z,92.25
2023-12-20T00:53:28.859Z,78.90
2023-12-20T00:55:59.989Z,83.07
2023-12-20T00:58:29.403Z,132.87
2023-12-20T01:00:57.843Z,93.75
2023-12-20T01:03:26.655Z,112.60
2023-12-20T01:05:55.808Z,105.28
2023-12-20T01:08:25.309Z,61.08
2023-12-20T01:10:54.752Z,89.68
2023-12-20T01:13:25.681Z,101.65
2023-12-20T01:18:29.187Z,100.20
2023-12-20T01:20:58.412Z,78.75
2023-12-20T01:23:27.724Z,83.47
2023-12-20T01:25:57.671Z,94.57
2023-12-20T01:28:28.979Z,86.85
2023-12-20T01:31:01.643Z,76.20
2023-12-20T01:33:30.702Z,118.78
2023-12-20T01:36:00.414Z,96.82
2023-12-20T01:38:29.353Z,109.20
2023-12-20T01:40:58.676Z,102.38
2023-12-20T01:43:31.928Z,105.47
2023-12-20T01:46:08.366Z,102.50
2023-12-20T01:48:38.965Z,105.80
2023-12-20T01:51:08.830Z,127.80
2023-12-20T01:53:38.313Z,138.52
2023-12-20T01:56:08.723Z,75.35
2023-12-20T01:58:41.588Z,115.55
2023-12-20T02:01:14.509Z,86.60
2023-12-20T02:03:44.254Z,104.68
2023-12-20T02:06:14.102Z,83.15
2023-12-20T02:08:43.026Z,139.93
2023-12-20T02:11:12.809Z,111.68
2023-12-20T02:13:46.335Z,110.95
2023-12-20T02:16:23.723Z,85.38
2023-12-20T02:18:53.700Z,116.07
2023-12-20T02:21:34.257Z,91.65
2023-12-20T02:24:03.492Z,82.00
2023-12-20T02:26:34.324Z,114.40
2023-12-20T02:29:04.612Z,96.07
2023-12-20T02:31:33.880Z,87.37
2023-12-20T02:34:03.696Z,97.72
2023-12-20T02:36:34.193Z,99.62
2023-12-20T02:39:03.673Z,94.87
2023-12-20T02:41:32.532Z,78.72
2023-12-20T02:44:01.288Z,124.80
2023-12-20T02:46:30.636Z,124.03
2023-12-20T02:48:59.623Z,90.30
2023-12-20T02:51:28.533Z,98.47
2023-12-20T02:53:59.049Z,180.55
2023-12-20T02:56:28.303Z,123.57
2023-12-20T02:58:57.614Z,81.47
2023-12-20T03:01:26.727Z,79.97
2023-12-20T03:03:56.220Z,110.80
2023-12-20T03:06:25.941Z,114.90
2023-12-20T03:08:55.422Z,69.30
2023-12-20T03:11:29.110Z,87.85
2023-12-20T03:13:58.604Z,81.00
2023-12-20T03:16:30.469Z,134.68
2023-12-20T03:19:00.072Z,158.32
2023-12-20T03:21:29.460Z,81.80
2023-12-20T03:23:58.350Z,73.80
2023-12-20T03:26:28.874Z,138.27
2023-12-20T03:28:58.094Z,79.53
2023-12-20T03:31:30.793Z,71.97
2023-12-20T03:36:31.824Z,98.37
2023-12-20T03:39:06.615Z,120.82
2023-12-20T03:41:37.619Z,92.45
2023-12-20T03:44:06.978Z,94.00
2023-12-20T03:46:37.717Z,79.18
2023-12-20T03:49:07.125Z,99.75
2023-12-20T03:51:36.245Z,112.03
2023-12-20T03:54:05.366Z,111.05
2023-12-20T03:56:34.507Z,94.68
2023-12-20T03:59:05.746Z,83.32
2023-12-20T04:01:40.746Z,53.50
2023-12-20T04:04:09.766Z,63.25
2023-12-20T04:06:39.001Z,103.25
2023-12-20T04:09:10.473Z,85.85
2023-12-20T04:11:39.786Z,68.30
2023-12-20T04:14:11.526Z,86.70
2023-12-20T04:16:43.816Z,82.18
2023-12-20T04:19:14.745Z,100.35
2023-12-20T04:21:44.258Z,115.00
2023-12-20T04:24:16.228Z,85.80
2023-12-20T04:26:45.469Z,80.80
2023-12-20T04:29:16.004Z,88.28
2023-12-20T04:31:48.778Z,133.32
2023-12-20T04:36:48.002Z,62.65
2023-12-20T04:39:17.257Z,94.95
2023-12-20T04:41:46.125Z,95.32
2023-12-20T04:44:16.744Z,139.10
2023-12-20T04:46:48.904Z,218.45
2023-12-20T04:49:18.796Z,117.60
2023-12-20T04:51:48.063Z,297.35
2023-12-20T04:56:49.534Z,98.85
2023-12-20T04:59:20.439Z,78.03
2023-12-20T05:01:53.888Z,108.03
2023-12-20T05:04:22.840Z,96.18
2023-12-20T05:06:52.489Z,129.10
2023-12-20T05:09:22.252Z,167.55
2023-12-20T05:11:51.703Z,89.10
2023-12-20T05:14:22.237Z,119.72
2023-12-20T05:16:58.325Z,83.25
2023-12-20T05:19:27.918Z,113.18
2023-12-20T05:21:57.296Z,130.95
2023-12-20T05:24:31.732Z,80.05
2023-12-20T05:27:00.821Z,84.75
2023-12-20T05:29:31.133Z,149.43
2023-12-20T05:32:05.806Z,80.55
2023-12-20T05:34:35.165Z,124.97
2023-12-20T05:37:05.012Z,167.48
2023-12-20T05:39:34.147Z,205.87
2023-12-20T05:42:03.137Z,131.18
2023-12-20T05:44:38.602Z,72.43
2023-12-20T05:47:07.756Z,204.70
2023-12-20T05:49:36.906Z,65.32
2023-12-20T05:52:07.163Z,63.95
2023-12-20T05:54:36.461Z,70.55
2023-12-20T05:57:05.837Z,85.00
2023-12-20T05:59:34.883Z,112.22
2023-12-20T06:02:09.102Z,67.05
2023-12-20T06:04:38.707Z,261.80
2023-12-20T06:07:08.002Z,164.23
2023-12-20T06:09:37.239Z,217.20
2023-12-20T06:12:07.485Z,250.38
2023-12-20T06:14:36.762Z,89.00
2023-12-20T06:19:47.967Z,91.55
2023-12-20T06:22:17.153Z,185.55
2023-12-20T06:24:46.455Z,107.70
2023-12-20T06:27:14.556Z,219.75
2023-12-20T06:29:45.519Z,74.28
2023-12-20T06:32:19.583Z,96.47
2023-12-20T06:34:52.948Z,72.12
2023-12-20T06:37:22.494Z,82.43
2023-12-20T06:39:51.644Z,123.97
2023-12-20T06:42:21.040Z,74.18
2023-12-20T06:44:51.392Z,59.38
2023-12-20T06:47:22.114Z,90.38
2023-12-20T06:49:54.457Z,51.45
2023-12-20T06:52:23.726Z,84.97
2023-12-20T06:54:53.309Z,90.68
2023-12-20T06:57:24.754Z,58.72
2023-12-20T06:59:54.342Z,49.27
2023-12-20T07:02:27.093Z,84.03
2023-12-20T07:04:56.441Z,88.80
2023-12-20T07:07:25.633Z,66.55
2023-12-20T07:09:54.763Z,48.53
2023-12-20T07:12:24.695Z,73.22
2023-12-20T07:14:53.912Z,70.57
2023-12-20T07:17:25.633Z,61.88
2023-12-20T07:19:56.010Z,56.42
2023-12-20T07:22:25.364Z,63.65
2023-12-20T07:24:56.176Z,74.32
2023-12-20T07:27:25.671Z,69.95
2023-12-20T07:29:55.465Z,64.25
2023-12-20T07:32:28.096Z,104.03
2023-12-20T07:34:58.810Z,83.60
2023-12-20T07:37:27.777Z,63.47
2023-12-20T07:39:57.062Z,182.35
2023-12-20T07:42:26.421Z,102.65
2023-12-20T07:44:56.621Z,59.20
2023-12-20T07:47:28.539Z,63.85
2023-12-20T07:49:59.430Z,88.82
2023-12-20T07:52:28.710Z,58.97
2023-12-20T07:54:58.810Z,55.30
2023-12-20T07:57:34.251Z,67.95
2023-12-20T08:00:05.245Z,64.10
2023-12-20T08:02:34.459Z,57.38
2023-12-20T08:05:04.869Z,66.18
2023-12-20T08:07:34.761Z,54.63
2023-12-20T08:10:03.959Z,58.70
2023-12-20T08:12:34.781Z,62.80
2023-12-20T08:15:05.248Z,57.60
2023-12-20T08:17:36.461Z,64.72
2023-12-20T08:20:09.076Z,57.42
2023-12-20T08:22:38.175Z,61.22
2023-12-20T08:27:48.353Z,61.45
2023-12-20T08:30:24.210Z,62.22
2023-12-20T08:32:53.481Z,57.78
2023-12-20T08:35:25.457Z,53.10
2023-12-20T08:37:54.929Z,55.22
2023-12-20T08:40:25.681Z,62.58
2023-12-20T08:42:56.627Z,58.72
2023-12-20T08:45:25.893Z,66.18
2023-12-20T08:48:01.081Z,62.78
2023-12-20T08:50:33.714Z,55.53
2023-12-20T08:53:03.317Z,54.53
2023-12-20T08:55:34.965Z,56.22
2023-12-20T08:58:04.156Z,53.13
2023-12-20T09:00:33.232Z,53.35
2023-12-20T09:03:05.857Z,82.20
2023-12-20T09:05:38.231Z,55.17
2023-12-20T09:10:38.418Z,51.37
2023-12-20T09:13:10.940Z,53.87
2023-12-20T09:15:40.211Z,54.42
2023-12-20T09:18:12.684Z,55.08
2023-12-20T09:20:44.472Z,57.08
2023-12-20T09:23:14.552Z,58.53
2023-12-20T09:25:45.323Z,55.47
2023-12-20T09:30:51.738Z,57.65
2023-12-20T09:33:28.288Z,49.40
2023-12-20T09:35:58.757Z,43.58
2023-12-20T09:38:28.088Z,54.70
2023-12-20T09:40:58.243Z,45.83
2023-12-20T09:43:29.901Z,45.35
2023-12-20T09:46:03.584Z,41.75
2023-12-20T09:48:35.917Z,42.55
2023-12-20T09:51:06.697Z,43.40
2023-12-20T09:53:39.261Z,43.10
2023-12-20T09:56:08.849Z,36.78
2023-12-20T09:58:39.478Z,35.83
2023-12-20T10:01:10.537Z,32.63
2023-12-20T10:03:43.651Z,31.90
2023-12-20T10:06:14.731Z,29.52
2023-12-20T10:08:44.466Z,26.77
2023-12-20T10:11:13.633Z,30.17
2023-12-20T10:13:45.322Z,30.85
2023-12-20T10:16:15.103Z,30.45
2023-12-20T10:18:50.433Z,30.40
2023-12-20T10:21:21.455Z,27.00
2023-12-20T10:23:51.805Z,27.55
2023-12-20T10:26:22.473Z,30.02
2023-12-20T10:28:54.108Z,32.13
2023-12-20T10:31:32.061Z,33.23
2023-12-20T10:34:02.465Z,35.67
2023-12-20T10:36:34.427Z,28.30
2023-12-20T10:39:12.649Z,28.70
2023-12-20T10:41:43.600Z,27.80
2023-12-20T10:44:13.236Z,28.35
2023-12-20T10:46:48.809Z,27.60
2023-12-20T10:49:19.627Z,28.35
2023-12-20T10:51:53.428Z,28.27
2023-12-20T10:54:22.788Z,27.17
2023-12-20T10:56:54.971Z,25.50
2023-12-20T10:59:27.188Z,24.85
2023-12-20T11:01:58.498Z,29.17
2023-12-20T11:04:41.733Z,26.77
2023-12-20T11:07:22.171Z,30.55
2023-12-20T11:10:02.656Z,28.00
2023-12-20T11:12:41.481Z,25.42
2023-12-20T11:15:10.933Z,26.58
2023-12-20T11:17:57.259Z,25.80
2023-12-20T11:20:38.067Z,28.60
2023-12-20T11:23:10.769Z,26.77
2023-12-20T11:28:25.956Z,26.67
2023-12-20T11:33:33.289Z,25.80
2023-12-20T11:36:04.120Z,26.87
2023-12-20T11:38:39.684Z,26.92
2023-12-20T11:41:09.309Z,27.08
2023-12-20T11:43:39.909Z,25.70
2023-12-20T11:46:10.990Z,26.55
2023-12-20T11:48:41.921Z,25.45
2023-12-20T11:51:14.732Z,24.40
2023-12-20T11:53:45.478Z,25.92
2023-12-20T11:56:15.093Z,26.75
2023-12-20T11:58:44.646Z,26.87
2023-12-20T12:01:14.070Z,26.98
2023-12-20T12:03:44.139Z,26.70
2023-12-20T12:06:14.483Z,35.60
2023-12-20T12:08:48.358Z,45.78
2023-12-20T12:11:17.725Z,27.83
2023-12-20T12:13:47.755Z,39.97
2023-12-20T12:16:20.186Z,24.58
2023-12-20T12:18:59.503Z,19.45
2023-12-20T12:21:33.132Z,36.50
2023-12-20T12:24:16.457Z,26.27
2023-12-20T12:26:56.565Z,25.20
2023-12-20T12:29:35.176Z,15.00
2023-12-20T12:32:08.052Z,16.83
2023-12-20T12:34:43.543Z,17.23
2023-12-20T12:37:13.891Z,12.50
2023-12-20T12:39:44.563Z,13.98
2023-12-20T12:42:17.402Z,12.70
2023-12-20T12:44:46.654Z,14.35
2023-12-20T12:47:16.495Z,15.38
2023-12-20T12:49:45.686Z,28.87
2023-12-20T12:52:15.383Z,19.15
2023-12-20T12:54:46.417Z,14.65
2023-12-20T12:57:24.988Z,15.48
2023-12-20T12:59:54.807Z,17.17
2023-12-20T13:02:24.012Z,17.27
2023-12-20T13:04:53.377Z,15.48
2023-12-20T13:07:22.572Z,19.48
2023-12-20T13:09:53.765Z,17.25
2023-12-20T13:12:23.653Z,19.75
2023-12-20T13:14:56.163Z,16.73
2023-12-20T13:17:25.513Z,16.70
2023-12-20T13:19:58.016Z,14.02
2023-12-20T13:25:03.539Z,17.80
2023-12-20T13:27:32.765Z,22.25
2023-12-20T13:30:02.251Z,20.48
2023-12-20T13:32:32.401Z,18.37
2023-12-20T13:35:02.106Z,19.23
2023-12-20T13:37:31.323Z,22.10
2023-12-20T13:40:02.807Z,20.40
2023-12-20T13:42:32.264Z,24.58
2023-12-20T13:45:01.646Z,19.77
2023-12-20T13:47:31.470Z,22.77
2023-12-20T13:50:01.448Z,24.48
2023-12-20T13:52:30.744Z,24.25
2023-12-20T13:55:03.293Z,21.67
2023-12-20T14:00:16.077Z,21.77
2023-12-20T14:02:45.641Z,23.67
2023-12-20T14:05:16.259Z,24.65
2023-12-20T14:07:50.052Z,20.58
2023-12-20T14:10:21.358Z,23.15
2023-12-20T14:12:51.410Z,21.02
2023-12-20T14:15:20.506Z,22.33
2023-12-20T14:17:50.019Z,22.95
2023-12-20T14:20:19.588Z,23.73
2023-12-20T14:22:48.708Z,22.87
2023-12-20T14:25:18.230Z,19.30
2023-12-20T14:27:51.419Z,23.90
2023-12-20T14:30:27.450Z,26.83
2023-12-20T14:33:03.189Z,23.98
2023-12-20T14:35:32.449Z,21.23
2023-12-20T14:38:02.276Z,20.12
2023-12-20T14:40:37.160Z,23.42
2023-12-20T14:43:08.083Z,26.73
2023-12-20T14:45:37.485Z,26.42
2023-12-20T14:50:38.987Z,37.95
2023-12-20T14:53:08.191Z,40.00
2023-12-20T14:55:37.514Z,30.17
2023-12-20T14:58:08.134Z,28.12
2023-12-20T15:00:37.291Z,37.33
2023-12-20T15:03:08.201Z,49.03
2023-12-20T15:05:38.235Z,27.90
2023-12-20T15:08:08.003Z,22.98
2023-12-20T15:10:37.667Z,25.10
2023-12-20T15:13:08.729Z,18.33
2023-12-20T15:15:39.020Z,22.20
2023-12-20T15:18:08.208Z,18.98
2023-12-20T15:20:38.112Z,18.73
2023-12-20T15:23:08.549Z,18.35
2023-12-20T15:25:38.201Z,19.52
2023-12-20T15:28:11.607Z,19.30
2023-12-20T15:30:40.916Z,21.77
2023-12-20T15:33:10.193Z,22.58
2023-12-20T15:35:40.472Z,19.77
2023-12-20T15:38:10.297Z,26.08
2023-12-20T15:40:39.489Z,18.95
2023-12-20T15:43:10.993Z,23.00
2023-12-20T15:45:41.171Z,25.45
2023-12-20T15:48:12.642Z,21.30
2023-12-20T15:50:42.040Z,22.42
2023-12-20T15:53:11.002Z,28.92
2023-12-20T15:55:40.904Z,26.75
2023-12-20T15:58:11.861Z,23.83
2023-12-20T16:00:43.005Z,79.53
2023-12-20T16:03:24.156Z,39.95
2023-12-20T16:05:56.276Z,20.98
2023-12-20T16:08:25.851Z,24.40
2023-12-20T16:10:55.073Z,20.73
2023-12-20T16:13:25.614Z,20.88
2023-12-20T16:15:55.702Z,23.90
2023-12-20T16:18:25.139Z,23.60
2023-12-20T16:20:54.609Z,24.75
2023-12-20T16:23:23.546Z,19.85
2023-12-20T16:25:52.445Z,23.38
2023-12-20T16:28:25.015Z,15.43
2023-12-20T16:30:57.734Z,19.90
2023-12-20T16:33:27.392Z,18.45
2023-12-20T16:35:58.538Z,16.27
2023-12-20T16:38:27.815Z,22.23
2023-12-20T16:40:57.177Z,20.30
2023-12-20T16:43:26.201Z,17.67
2023-12-20T16:45:57.506Z,17.20
2023-12-20T16:48:26.703Z,19.17
2023-12-20T16:50:56.470Z,15.68
2023-12-20T16:53:25.836Z,19.83
2023-12-20T16:55:54.876Z,19.92
2023-12-20T16:58:24.391Z,26.92
2023-12-20T17:00:53.604Z,20.77
2023-12-20T17:03:26.491Z,20.83
2023-12-20T17:05:55.870Z,22.27
2023-12-20T17:08:25.264Z,20.02
2023-12-20T17:10:54.635Z,22.15
2023-12-20T17:13:23.878Z,22.23
2023-12-20T17:15:53.348Z,23.50
2023-12-20T17:18:23.813Z,28.77
2023-12-20T17:20:53.165Z,23.02
2023-12-20T17:23:22.213Z,21.33
2023-12-20T17:25:51.498Z,20.95
2023-12-20T17:28:21.097Z,24.90
2023-12-20T17:30:53.745Z,22.73
2023-12-20T17:33:24.842Z,23.23
2023-12-20T17:35:56.456Z,22.58
2023-12-20T17:38:26.096Z,25.02
2023-12-20T17:40:58.397Z,25.60
2023-12-20T17:43:27.984Z,22.00
2023-12-20T17:45:57.019Z,24.63
2023-12-20T17:48:27.839Z,24.33
2023-12-20T17:50:57.210Z,24.12
2023-12-20T17:53:29.202Z,26.80
2023-12-20T17:58:28.509Z,20.92
2023-12-20T18:00:57.899Z,24.20
2023-12-20T18:03:30.490Z,26.45
2023-12-20T18:06:01.263Z,32.08
2023-12-20T18:08:34.956Z,30.98
2023-12-20T18:11:06.611Z,29.98
2023-12-20T18:13:38.146Z,29.35
2023-12-20T18:16:18.186Z,30.67
2023-12-20T18:18:50.825Z,27.27
2023-12-20T18:21:21.819Z,26.80
2023-12-20T18:23:57.128Z,27.75
2023-12-20T18:26:36.965Z,33.90
2023-12-20T18:29:10.983Z,30.05
2023-12-20T18:31:44.160Z,31.48
2023-12-20T18:34:16.823Z,29.60
2023-12-20T18:36:49.595Z,26.42
2023-12-20T18:39:21.476Z,26.45
2023-12-20T18:41:51.976Z,25.37
2023-12-20T18:44:34.832Z,27.70
2023-12-20T18:47:08.767Z,28.40
2023-12-20T18:49:42.196Z,27.62
2023-12-20T18:52:13.597Z,26.35
2023-12-20T18:54:45.460Z,28.48
2023-12-20T18:57:16.406Z,28.85
2023-12-20T18:59:48.423Z,29.77
2023-12-20T19:02:19.623Z,40.17
2023-12-20T19:04:53.635Z,34.08
2023-12-20T19:07:24.717Z,45.30
2023-12-20T19:09:56.024Z,44.78
2023-12-20T19:12:27.565Z,51.92
2023-12-20T19:15:02.570Z,42.05
2023-12-20T19:17:33.993Z,51.15
2023-12-20T19:20:08.935Z,55.43
2023-12-20T19:22:40.459Z,66.05
2023-12-20T19:25:14.724Z,55.20
2023-12-20T19:27:51.701Z,93.30
2023-12-20T19:30:24.383Z,87.10
2023-12-20T19:32:55.712Z,101.22
2023-12-20T19:35:29.850Z,143.20
2023-12-20T19:38:01.324Z,138.55
2023-12-20T19:40:34.102Z,126.22
2023-12-20T19:43:09.393Z,90.50
2023-12-20T19:45:41.638Z,71.50
2023-12-20T19:48:13.521Z,73.53
2023-12-20T19:50:49.606Z,61.85
2023-12-20T19:53:24.558Z,44.75
2023-12-20T19:55:59.774Z,39.88
2023-12-20T20:01:04.555Z,34.75
2023-12-20T20:03:38.056Z,32.95
2023-12-20T20:06:13.135Z,33.78
2023-12-20T20:08:47.185Z,31.33
2023-12-20T20:11:29.782Z,26.02
2023-12-20T20:14:08.466Z,21.00
2023-12-20T20:16:40.593Z,23.98
2023-12-20T20:19:13.427Z,18.92
2023-12-20T20:21:49.787Z,23.10
2023-12-20T20:24:34.600Z,43.92
2023-12-20T20:27:07.028Z,48.28
2023-12-20T20:29:39.944Z,29.25
2023-12-20T20:32:18.221Z,30.15
2023-12-20T20:34:50.344Z,29.05
2023-12-20T20:37:26.043Z,27.87
2023-12-20T20:40:03.514Z,23.87
2023-12-20T20:42:34.889Z,30.10
2023-12-20T20:45:07.683Z,23.87
2023-12-20T20:47:39.097Z,22.80
2023-12-20T20:50:12.241Z,24.95
2023-12-20T20:52:48.256Z,27.62
2023-12-20T20:55:21.204Z,20.73
2023-12-20T20:57:53.489Z,24.52
2023-12-20T21:00:23.677Z,24.20
2023-12-20T21:02:53.003Z,21.00
2023-12-20T21:05:22.461Z,22.20
2023-12-20T21:07:53.770Z,26.37
2023-12-20T21:10:29.248Z,19.70
2023-12-20T21:12:58.090Z,23.92
2023-12-20T21:15:27.259Z,23.40
2023-12-20T21:17:56.562Z,22.52
2023-12-20T21:20:25.662Z,27.90
2023-12-20T21:22:59.718Z,25.40
2023-12-20T21:25:29.057Z,27.50
2023-12-20T21:27:58.268Z,23.83
2023-12-20T21:30:27.354Z,23.23
2023-12-20T21:32:56.714Z,27.42
2023-12-20T21:35:29.691Z,25.45
2023-12-20T21:38:00.034Z,23.38
2023-12-20T21:40:29.288Z,22.13
2023-12-20T21:42:58.698Z,23.15
2023-12-20T21:45:27.785Z,27.70
2023-12-20T21:47:57.462Z,25.02
2023-12-20T21:50:26.845Z,24.55
2023-12-20T21:52:56.429Z,27.23
2023-12-20T21:55:26.787Z,20.88
2023-12-20T21:57:55.881Z,21.87
2023-12-20T22:00:25.240Z,19.73
2023-12-20T22:02:54.814Z,15.60
2023-12-20T22:05:24.108Z,14.05
2023-12-20T22:07:56.867Z,13.48
2023-12-20T22:10:30.883Z,14.77
2023-12-20T22:13:00.753Z,15.35
2023-12-20T22:15:30.241Z,11.80
2023-12-20T22:18:00.091Z,11.48
2023-12-20T22:20:30.623Z,13.55
2023-12-20T22:22:59.970Z,10.93
2023-12-20T22:25:39.237Z,14.68
2023-12-20T22:28:08.462Z,12.70
2023-12-20T22:30:38.004Z,10.77
2023-12-20T22:33:06.965Z,12.23
2023-12-20T22:35:36.566Z,11.77
2023-12-20T22:38:06.079Z,11.23
2023-12-20T22:40:39.892Z,13.98
2023-12-20T22:43:09.270Z,11.98
2023-12-20T22:45:57.481Z,11.48
2023-12-20T22:48:27.413Z,11.90
2023-12-20T22:50:56.620Z,11.82
2023-12-20T22:53:25.808Z,11.20
2023-12-20T22:55:56.942Z,13.05
2023-12-20T22:58:27.054Z,10.43
2023-12-20T23:00:56.598Z,10.82
2023-12-20T23:03:26.643Z,13.70
2023-12-20T23:05:55.851Z,10.98
2023-12-20T23:08:25.114Z,16.33
2023-12-20T23:10:54.236Z,14.90
2023-12-20T23:13:27.449Z,15.55
2023-12-20T23:15:58.504Z,17.50
2023-12-20T23:18:27.586Z,19.87
2023-12-20T23:20:57.648Z,18.90
2023-12-20T23:23:26.489Z,16.50
2023-12-20T23:25:58.950Z,16.45
2023-12-20T23:28:29.512Z,13.50
2023-12-20T23:30:58.706Z,17.70
2023-12-20T23:33:28.040Z,17.77
2023-12-20T23:35:57.557Z,18.55
2023-12-20T23:38:27.899Z,15.73
2023-12-20T23:40:56.995Z,17.10
2023-12-20T23:43:25.985Z,15.32
2023-12-20T23:45:57.065Z,16.55
2023-12-20T23:48:26.259Z,15.13
2023-12-20T23:50:55.733Z,16.98
2023-12-20T23:53:24.662Z,15.43
2023-12-20T23:55:54.357Z,13.77
2023-12-20T23:58:23.204Z,15.15
